Aviation Digital Data Service (ADDS)

Output produced by METARs form (0058 UTC 19 November 2017)
found at http://aviationweather.gov/adds/metars/
 
KGLS 182322Z 1900/1924 35020G30KT P6SM SCT045 BKN060 BKN070 
     FM190100 35025G35KT P6SM SCT250 
     FM191200 36019G26KT P6SM SCT250 
     FM191800 01015KT P6SM SCT250 
     FM192200 36010KT P6SM SCT250